sensor_id;sensor_type;location;lat;lon;timestamp;pressure;altitude;pressure_sealevel;temperature;humidity
55679;BME280;41573;51.446;-2.018;2023-03-23T07:46:33;94561.06;;;9.10;100.00
55679;BME280;41573;51.446;-2.018;2023-03-23T07:49:01;94601.63;;;9.10;100.00
55679;BME280;41573;51.446;-2.018;2023-03-23T07:51:33;94635.19;;;9.17;100.00
55679;BME280;41573;51.446;-2.018;2023-03-23T07:53:59;94658.19;;;9.23;100.00
55679;BME280;41573;51.446;-2.018;2023-03-23T07:56:28;94689.09;;;9.29;100.00
55679;BME280;41573;51.446;-2.018;2023-03-23T07:58:53;94731.09;;;9.32;100.00
55679;BME280;41573;51.446;-2.018;2023-03-23T08:01:21;94754.78;;;9.45;100.00
55679;BME280;41573;51.446;-2.018;2023-03-23T08:03:49;94777.44;;;9.48;100.00
55679;BME280;41573;51.446;-2.018;2023-03-23T08:06:15;94806.41;;;9.49;100.00
55679;BME280;41573;51.446;-2.018;2023-03-23T08:08:43;94832.28;;;9.66;100.00
55679;BME280;41573;51.446;-2.018;2023-03-23T08:11:10;94844.59;;;9.60;100.00
55679;BME280;41573;51.446;-2.018;2023-03-23T08:13:36;94873.50;;;9.69;100.00
55679;BME280;41573;51.446;-2.018;2023-03-23T08:16:17;94875.84;;;9.77;100.00
55679;BME280;41573;51.446;-2.018;2023-03-23T08:22:28;94965.22;;;9.83;100.00
55679;BME280;41573;51.446;-2.018;2023-03-23T08:24:56;94984.22;;;9.68;100.00
55679;BME280;41573;51.446;-2.018;2023-03-23T08:44:25;95029.69;;;10.39;100.00
55679;BME280;41573;51.446;-2.018;2023-03-23T08:46:50;95053.66;;;10.32;100.00
55679;BME280;41573;51.446;-2.018;2023-03-23T08:49:26;95081.38;;;10.43;100.00
55679;BME280;41573;51.446;-2.018;2023-03-23T08:52:00;95114.00;;;10.50;100.00
55679;BME280;41573;51.446;-2.018;2023-03-23T08:57:36;95160.16;;;10.56;100.00
55679;BME280;41573;51.446;-2.018;2023-03-23T09:00:28;95168.34;;;10.55;100.00
55679;BME280;41573;51.446;-2.018;2023-03-23T09:02:56;95192.19;;;10.61;100.00
55679;BME280;41573;51.446;-2.018;2023-03-23T09:05:26;95203.75;;;10.67;100.00
55679;BME280;41573;51.446;-2.018;2023-03-23T09:07:54;95213.63;;;10.78;100.00
55679;BME280;41573;51.446;-2.018;2023-03-23T09:10:24;95215.13;;;10.74;100.00
55679;BME280;41573;51.446;-2.018;2023-03-23T09:12:52;95235.75;;;10.79;100.00
55679;BME280;41573;51.446;-2.018;2023-03-23T09:15:19;95236.13;;;10.94;100.00
55679;BME280;41573;51.446;-2.018;2023-03-23T09:17:49;95233.78;;;11.16;100.00
55679;BME280;41573;51.446;-2.018;2023-03-23T09:20:22;95262.38;;;11.21;100.00
55679;BME280;41573;51.446;-2.018;2023-03-23T09:22:50;95308.91;;;11.18;100.00
55679;BME280;41573;51.446;-2.018;2023-03-23T09:25:21;95334.16;;;11.16;100.00
55679;BME280;41573;51.446;-2.018;2023-03-23T09:27:52;95368.53;;;11.17;100.00
55679;BME280;41573;51.446;-2.018;2023-03-23T09:30:23;95399.72;;;11.29;100.00
55679;BME280;41573;51.446;-2.018;2023-03-23T09:32:49;95395.69;;;11.38;100.00
55679;BME280;41573;51.446;-2.018;2023-03-23T09:35:17;95407.81;;;11.52;100.00
55679;BME280;41573;51.446;-2.018;2023-03-23T09:37:51;95431.66;;;11.78;100.00
55679;BME280;41573;51.446;-2.018;2023-03-23T09:40:23;95427.41;;;11.88;100.00
55679;BME280;41573;51.446;-2.018;2023-03-23T09:43:04;95485.31;;;11.81;100.00
55679;BME280;41573;51.446;-2.018;2023-03-23T09:48:25;95528.75;;;11.82;100.00
55679;BME280;41573;51.446;-2.018;2023-03-23T09:51:17;95540.59;;;11.86;100.00
55679;BME280;41573;51.446;-2.018;2023-03-23T09:53:50;95533.13;;;11.95;100.00
55679;BME280;41573;51.446;-2.018;2023-03-23T09:56:18;95580.09;;;11.96;100.00
55679;BME280;41573;51.446;-2.018;2023-03-23T09:59:08;95572.91;;;11.96;100.00
55679;BME280;41573;51.446;-2.018;2023-03-23T10:01:48;95570.94;;;12.22;100.00
55679;BME280;41573;51.446;-2.018;2023-03-23T10:04:50;95569.16;;;12.46;100.00
55679;BME280;41573;51.446;-2.018;2023-03-23T10:07:27;95586.09;;;12.82;100.00
55679;BME280;41573;51.446;-2.018;2023-03-23T10:09:59;95642.38;;;12.81;100.00
55679;BME280;41573;51.446;-2.018;2023-03-23T10:12:36;95785.84;;;12.30;100.00
55679;BME280;41573;51.446;-2.018;2023-03-23T10:17:49;95855.41;;;12.28;100.00
55679;BME280;41573;51.446;-2.018;2023-03-23T10:25:59;95889.41;;;12.58;100.00
55679;BME280;41573;51.446;-2.018;2023-03-23T10:28:51;95908.16;;;12.70;100.00
55679;BME280;41573;51.446;-2.018;2023-03-23T10:31:24;95992.00;;;12.62;100.00
55679;BME280;41573;51.446;-2.018;2023-03-23T10:34:08;96008.00;;;12.62;100.00
55679;BME280;41573;51.446;-2.018;2023-03-23T10:36:52;96062.09;;;12.76;100.00
55679;BME280;41573;51.446;-2.018;2023-03-23T10:39:25;96054.34;;;12.93;100.00
55679;BME280;41573;51.446;-2.018;2023-03-23T10:41:52;96048.91;;;13.06;100.00
55679;BME280;41573;51.446;-2.018;2023-03-23T10:44:21;96077.84;;;13.09;100.00
55679;BME280;41573;51.446;-2.018;2023-03-23T10:46:58;96111.91;;;13.14;100.00
55679;BME280;41573;51.446;-2.018;2023-03-23T10:49:32;96106.47;;;13.27;100.00
55679;BME280;41573;51.446;-2.018;2023-03-23T10:52:10;96177.97;;;13.25;100.00
55679;BME280;41573;51.446;-2.018;2023-03-23T10:55:05;96248.47;;;13.24;100.00
55679;BME280;41573;51.446;-2.018;2023-03-23T10:57:44;96259.06;;;13.06;100.00
55679;BME280;41573;51.446;-2.018;2023-03-23T11:00:24;96260.94;;;12.99;100.00
55679;BME280;41573;51.446;-2.018;2023-03-23T11:03:04;96248.31;;;12.81;100.00
55679;BME280;41573;51.446;-2.018;2023-03-23T11:05:54;96255.16;;;12.63;100.00
55679;BME280;41573;51.446;-2.018;2023-03-23T11:08:28;96290.69;;;12.57;100.00
55679;BME280;41573;51.446;-2.018;2023-03-23T11:11:18;96301.16;;;12.52;100.00
55679;BME280;41573;51.446;-2.018;2023-03-23T11:13:49;96335.69;;;12.40;100.00
55679;BME280;41573;51.446;-2.018;2023-03-23T11:18:53;96285.16;;;12.58;100.00
55679;BME280;41573;51.446;-2.018;2023-03-23T11:21:21;96266.66;;;12.64;100.00
55679;BME280;41573;51.446;-2.018;2023-03-23T11:23:58;96263.59;;;12.53;100.00
55679;BME280;41573;51.446;-2.018;2023-03-23T11:26:33;96259.78;;;12.29;100.00
55679;BME280;41573;51.446;-2.018;2023-03-23T11:31:35;96158.53;;;11.82;100.00
55679;BME280;41573;51.446;-2.018;2023-03-23T11:34:25;96112.00;;;11.98;100.00
55679;BME280;41573;51.446;-2.018;2023-03-23T11:37:09;96042.50;;;12.25;100.00
55679;BME280;41573;51.446;-2.018;2023-03-23T11:39:56;96032.72;;;12.19;100.00
55679;BME280;41573;51.446;-2.018;2023-03-23T11:50:44;96013.09;;;13.33;100.00
55679;BME280;41573;51.446;-2.018;2023-03-23T11:53:17;96030.81;;;13.52;100.00
55679;BME280;41573;51.446;-2.018;2023-03-23T11:58:19;96163.06;;;13.43;100.00
55679;BME280;41573;51.446;-2.018;2023-03-23T12:01:07;96171.69;;;13.45;100.00
55679;BME280;41573;51.446;-2.018;2023-03-23T12:11:52;96215.63;;;12.85;100.00
55679;BME280;41573;51.446;-2.018;2023-03-23T12:20:44;96187.84;;;12.93;100.00
55679;BME280;41573;51.446;-2.018;2023-03-23T12:23:33;96238.47;;;12.74;100.00
55679;BME280;41573;51.446;-2.018;2023-03-23T12:34:36;96290.91;;;12.62;100.00
55679;BME280;41573;51.446;-2.018;2023-03-23T12:43:30;96289.16;;;12.88;100.00
55679;BME280;41573;51.446;-2.018;2023-03-23T12:46:11;96347.50;;;12.77;100.00
55679;BME280;41573;51.446;-2.018;2023-03-23T12:48:48;96356.13;;;12.86;100.00
55679;BME280;41573;51.446;-2.018;2023-03-23T12:51:22;96324.88;;;12.93;100.00
55679;BME280;41573;51.446;-2.018;2023-03-23T13:02:25;96453.03;;;12.87;100.00
55679;BME280;41573;51.446;-2.018;2023-03-23T13:05:07;96455.72;;;12.80;100.00
55679;BME280;41573;51.446;-2.018;2023-03-23T13:07:47;96439.47;;;12.82;100.00
55679;BME280;41573;51.446;-2.018;2023-03-23T13:10:28;96478.94;;;12.86;100.00
55679;BME280;41573;51.446;-2.018;2023-03-23T13:12:58;96454.25;;;12.98;100.00
55679;BME280;41573;51.446;-2.018;2023-03-23T13:15:34;96455.03;;;13.11;100.00
55679;BME280;41573;51.446;-2.018;2023-03-23T13:21:18;96472.66;;;13.26;100.00
55679;BME280;41573;51.446;-2.018;2023-03-23T13:23:53;96501.03;;;13.27;100.00
55679;BME280;41573;51.446;-2.018;2023-03-23T13:26:22;96524.84;;;13.28;100.00
55679;BME280;41573;51.446;-2.018;2023-03-23T13:29:08;96535.56;;;13.42;100.00
55679;BME280;41573;51.446;-2.018;2023-03-23T13:31:38;96553.22;;;13.43;100.00
55679;BME280;41573;51.446;-2.018;2023-03-23T13:34:26;96556.69;;;13.50;100.00
55679;BME280;41573;51.446;-2.018;2023-03-23T13:37:22;96554.88;;;13.44;100.00
55679;BME280;41573;51.446;-2.018;2023-03-23T13:40:20;96578.91;;;13.17;100.00
55679;BME280;41573;51.446;-2.018;2023-03-23T13:42:59;96577.28;;;13.03;100.00
55679;BME280;41573;51.446;-2.018;2023-03-23T13:45:47;96552.84;;;12.92;100.00
55679;BME280;41573;51.446;-2.018;2023-03-23T13:53:28;96496.19;;;12.57;100.00
55679;BME280;41573;51.446;-2.018;2023-03-23T13:56:37;96464.16;;;12.37;100.00
55679;BME280;41573;51.446;-2.018;2023-03-23T13:59:13;96410.41;;;12.27;100.00
55679;BME280;41573;51.446;-2.018;2023-03-23T14:01:40;96358.28;;;12.24;100.00
55679;BME280;41573;51.446;-2.018;2023-03-23T14:04:15;96311.50;;;12.15;100.00
55679;BME280;41573;51.446;-2.018;2023-03-23T14:06:41;96277.47;;;12.10;100.00
55679;BME280;41573;51.446;-2.018;2023-03-23T14:09:45;96240.97;;;12.04;100.00
55679;BME280;41573;51.446;-2.018;2023-03-23T14:12:28;96215.94;;;11.85;100.00
55679;BME280;41573;51.446;-2.018;2023-03-23T14:15:01;96173.72;;;11.75;100.00
55679;BME280;41573;51.446;-2.018;2023-03-23T14:17:31;96120.88;;;11.59;100.00
55679;BME280;41573;51.446;-2.018;2023-03-23T14:19:59;96088.06;;;11.65;100.00
55679;BME280;41573;51.446;-2.018;2023-03-23T14:22:34;96045.66;;;11.63;100.00
55679;BME280;41573;51.446;-2.018;2023-03-23T14:27:43;95965.16;;;11.54;100.00
55679;BME280;41573;51.446;-2.018;2023-03-23T14:30:15;95941.06;;;11.36;100.00
55679;BME280;41573;51.446;-2.018;2023-03-23T15:12:02;95271.34;;;9.78;100.00
55679;BME280;41573;51.446;-2.018;2023-03-23T15:32:30;95218.03;;;9.98;100.00
55679;BME280;41573;51.446;-2.018;2023-03-23T15:34:57;95211.97;;;9.91;100.00
55679;BME280;41573;51.446;-2.018;2023-03-23T15:37:29;95198.16;;;9.82;100.00
55679;BME280;41573;51.446;-2.018;2023-03-23T15:40:01;95145.19;;;9.88;100.00
55679;BME280;41573;51.446;-2.018;2023-03-23T15:42:30;95112.28;;;9.89;100.00
55679;BME280;41573;51.446;-2.018;2023-03-23T15:45:16;95067.78;;;9.84;100.00
55679;BME280;41573;51.446;-2.018;2023-03-23T15:47:47;95037.91;;;9.89;100.00
55679;BME280;41573;51.446;-2.018;2023-03-23T15:52:50;94953.03;;;9.94;100.00
55679;BME280;41573;51.446;-2.018;2023-03-23T15:55:21;94920.09;;;9.95;100.00
55679;BME280;41573;51.446;-2.018;2023-03-23T15:57:47;94893.41;;;9.90;100.00
55679;BME280;41573;51.446;-2.018;2023-03-23T16:00:14;94868.81;;;9.94;100.00
55679;BME280;41573;51.446;-2.018;2023-03-23T16:02:42;94858.88;;;9.90;100.00
55679;BME280;41573;51.446;-2.018;2023-03-23T16:05:11;94844.56;;;9.91;100.00
55679;BME280;41573;51.446;-2.018;2023-03-23T16:07:38;94824.91;;;9.92;100.00
55679;BME280;41573;51.446;-2.018;2023-03-23T16:10:07;94815.22;;;9.97;100.00
55679;BME280;41573;51.446;-2.018;2023-03-23T16:12:53;94777.00;;;9.98;100.00
55679;BME280;41573;51.446;-2.018;2023-03-23T16:15:20;94754.47;;;10.01;100.00
55679;BME280;41573;51.446;-2.018;2023-03-23T16:17:46;94747.31;;;10.01;100.00
55679;BME280;41573;51.446;-2.018;2023-03-23T16:20:15;94737.94;;;9.99;100.00
55679;BME280;41573;51.446;-2.018;2023-03-23T16:22:41;94739.69;;;10.05;100.00
55679;BME280;41573;51.446;-2.018;2023-03-23T16:25:07;94739.25;;;9.96;100.00
55679;BME280;41573;51.446;-2.018;2023-03-23T16:27:35;94728.38;;;9.98;100.00
55679;BME280;41573;51.446;-2.018;2023-03-23T16:30:01;94714.41;;;9.91;100.00
55679;BME280;41573;51.446;-2.018;2023-03-23T16:32:27;94709.66;;;9.93;100.00
55679;BME280;41573;51.446;-2.018;2023-03-23T16:34:53;94705.97;;;9.94;100.00
55679;BME280;41573;51.446;-2.018;2023-03-23T16:37:19;94701.56;;;9.88;100.00
55679;BME280;41573;51.446;-2.018;2023-03-23T16:39:45;94695.13;;;9.83;100.00
55679;BME280;41573;51.446;-2.018;2023-03-23T16:42:11;94674.56;;;9.91;100.00
55679;BME280;41573;51.446;-2.018;2023-03-23T16:44:37;94663.94;;;9.91;100.00
55679;BME280;41573;51.446;-2.018;2023-03-23T16:47:02;94657.00;;;9.90;100.00
55679;BME280;41573;51.446;-2.018;2023-03-23T16:49:28;94649.03;;;9.90;100.00
55679;BME280;41573;51.446;-2.018;2023-03-23T16:51:53;94645.13;;;9.92;100.00
55679;BME280;41573;51.446;-2.018;2023-03-23T16:54:18;94626.16;;;9.89;100.00
55679;BME280;41573;51.446;-2.018;2023-03-23T16:56:44;94616.00;;;9.86;100.00
55679;BME280;41573;51.446;-2.018;2023-03-23T16:59:11;94584.25;;;9.91;100.00
55679;BME280;41573;51.446;-2.018;2023-03-23T17:01:37;94574.56;;;9.84;100.00
55679;BME280;41573;51.446;-2.018;2023-03-23T17:04:03;94574.13;;;9.76;100.00
55679;BME280;41573;51.446;-2.018;2023-03-23T17:06:29;94540.50;;;9.81;100.00
55679;BME280;41573;51.446;-2.018;2023-03-23T17:09:15;94516.38;;;9.83;100.00
55679;BME280;41573;51.446;-2.018;2023-03-23T17:11:43;94485.53;;;9.82;100.00
55679;BME280;41573;51.446;-2.018;2023-03-23T17:14:09;94479.31;;;9.76;100.00
55679;BME280;41573;51.446;-2.018;2023-03-23T17:16:35;94447.25;;;9.78;100.00
55679;BME280;41573;51.446;-2.018;2023-03-23T17:19:00;94432.72;;;9.69;100.00
55679;BME280;41573;51.446;-2.018;2023-03-23T17:21:25;94430.41;;;9.72;100.00
55679;BME280;41573;51.446;-2.018;2023-03-23T17:23:52;94414.03;;;9.63;100.00
55679;BME280;41573;51.446;-2.018;2023-03-23T17:26:17;94407.44;;;9.66;100.00
55679;BME280;41573;51.446;-2.018;2023-03-23T17:28:44;94378.00;;;9.68;100.00
55679;BME280;41573;51.446;-2.018;2023-03-23T17:31:12;94352.34;;;9.73;100.00
55679;BME280;41573;51.446;-2.018;2023-03-23T17:33:39;94361.34;;;9.55;100.00
55679;BME280;41573;51.446;-2.018;2023-03-23T17:36:41;94343.69;;;9.49;100.00
55679;BME280;41573;51.446;-2.018;2023-03-23T18:34:43;93109.72;;;8.87;100.00
55679;BME280;41573;51.446;-2.018;2023-03-23T18:37:08;93104.03;;;8.27;100.00
55679;BME280;41573;51.446;-2.018;2023-03-23T18:39:34;93096.22;;;7.84;100.00
55679;BME280;41573;51.446;-2.018;2023-03-23T18:42:09;93069.19;;;7.77;100.00
